createdAt,value
2023-05-15T00:01:11.437Z,99651.54
2023-05-15T00:03:39.063Z,99654.05
2023-05-15T00:06:06.865Z,99653.60
2023-05-15T00:08:34.269Z,99652.22
2023-05-15T00:11:02.286Z,99652.42
2023-05-15T00:13:30.460Z,99654.47
2023-05-15T00:15:58.214Z,99657.00
2023-05-15T00:18:25.995Z,99656.80
2023-05-15T00:20:53.775Z,99651.98
2023-05-15T00:23:21.251Z,99651.89
2023-05-15T00:25:48.977Z,99650.99
2023-05-15T00:28:16.538Z,99649.83
2023-05-15T00:30:44.198Z,99647.38
2023-05-15T00:33:11.960Z,99647.90
2023-05-15T00:35:39.835Z,99654.95
2023-05-15T00:38:07.385Z,99655.08
2023-05-15T00:40:35.049Z,99653.63
2023-05-15T00:43:02.413Z,99653.13
2023-05-15T00:45:30.168Z,99657.57
2023-05-15T00:47:59.254Z,99656.27
2023-05-15T00:50:27.031Z,99655.77
2023-05-15T00:52:54.382Z,99653.70
2023-05-15T00:55:21.868Z,99649.32
2023-05-15T00:57:49.388Z,99647.91
2023-05-15T01:00:18.806Z,99648.33
2023-05-15T01:02:46.621Z,99646.29
2023-05-15T01:05:14.329Z,99648.60
2023-05-15T01:07:48.546Z,99649.92
2023-05-15T01:10:16.305Z,99649.70
2023-05-15T01:12:43.661Z,99648.74
2023-05-15T01:15:11.635Z,99645.09
2023-05-15T01:17:39.001Z,99645.25
2023-05-15T01:20:07.558Z,99641.45
2023-05-15T01:22:45.186Z,99644.22
2023-05-15T01:25:23.652Z,99639.48
2023-05-15T01:27:59.634Z,99640.14
2023-05-15T01:30:28.833Z,99643.85
2023-05-15T01:33:21.070Z,99650.18
2023-05-15T01:36:23.458Z,99645.11
2023-05-15T01:38:52.457Z,99647.46
2023-05-15T01:41:24.503Z,99641.73
2023-05-15T01:44:15.201Z,99644.58
2023-05-15T01:46:46.824Z,99643.56
2023-05-15T01:49:14.530Z,99644.70
2023-05-15T01:51:42.073Z,99643.08
2023-05-15T01:54:09.734Z,99647.30
2023-05-15T01:56:38.219Z,99650.93
2023-05-15T01:59:05.988Z,99652.08
2023-05-15T02:01:33.974Z,99651.52
2023-05-15T02:04:02.255Z,99649.45
2023-05-15T02:06:31.931Z,99649.66
2023-05-15T02:09:01.651Z,99648.27
2023-05-15T02:11:29.300Z,99647.44
2023-05-15T02:13:57.149Z,99647.21
2023-05-15T02:16:24.769Z,99646.49
2023-05-15T02:18:52.982Z,99644.86
2023-05-15T02:21:20.769Z,99644.85
2023-05-15T02:23:48.537Z,99643.00
2023-05-15T02:26:35.140Z,99638.68
2023-05-15T02:29:24.816Z,99638.60
2023-05-15T02:32:04.748Z,99635.08
2023-05-15T02:34:38.786Z,99632.69
2023-05-15T02:37:07.870Z,99631.83
2023-05-15T02:39:36.147Z,99626.63
2023-05-15T02:42:04.016Z,99624.20
2023-05-15T02:44:31.478Z,99625.07
2023-05-15T02:46:59.035Z,99622.34
2023-05-15T02:49:26.699Z,99624.74
2023-05-15T02:51:54.349Z,99626.06
2023-05-15T02:54:21.756Z,99624.77
2023-05-15T02:56:49.263Z,99626.05
2023-05-15T02:59:20.048Z,99629.42
2023-05-15T03:01:48.105Z,99629.04
2023-05-15T03:04:15.792Z,99632.35
2023-05-15T03:06:43.698Z,99630.06
2023-05-15T03:09:11.375Z,99629.58
2023-05-15T03:11:38.941Z,99628.02
2023-05-15T03:14:06.374Z,99626.64
2023-05-15T03:16:33.971Z,99625.77
2023-05-15T03:19:03.054Z,99628.15
2023-05-15T03:21:30.801Z,99629.40
2023-05-15T03:23:58.248Z,99630.48
2023-05-15T03:26:26.113Z,99633.65
2023-05-15T03:28:54.595Z,99637.92
2023-05-15T03:31:22.179Z,99635.84
2023-05-15T03:33:51.624Z,99635.61
2023-05-15T03:36:19.438Z,99641.04
2023-05-15T03:38:46.833Z,99641.73
2023-05-15T03:41:14.764Z,99645.23
2023-05-15T03:43:42.407Z,99646.01
2023-05-15T03:46:09.914Z,99647.98
2023-05-15T03:48:41.078Z,99648.36
2023-05-15T03:51:08.359Z,99645.98
2023-05-15T03:53:35.821Z,99645.34
2023-05-15T03:56:03.877Z,99644.73
2023-05-15T03:58:32.577Z,99647.06
2023-05-15T04:01:00.340Z,99642.54
2023-05-15T04:03:27.919Z,99648.88
2023-05-15T04:05:55.885Z,99649.92
2023-05-15T04:08:23.536Z,99648.34
2023-05-15T04:10:51.329Z,99648.95
2023-05-15T04:13:18.953Z,99645.48
2023-05-15T04:15:46.936Z,99645.23
2023-05-15T04:18:14.196Z,99648.92
2023-05-15T04:20:41.837Z,99647.85
2023-05-15T04:23:09.404Z,99645.46
2023-05-15T04:25:37.979Z,99644.04
2023-05-15T04:28:06.762Z,99643.49
2023-05-15T04:30:34.526Z,99638.41
2023-05-15T04:33:02.149Z,99640.88
2023-05-15T04:35:30.369Z,99643.78
2023-05-15T04:37:57.821Z,99647.54
2023-05-15T04:40:25.586Z,99649.16
2023-05-15T04:42:53.145Z,99647.27
2023-05-15T04:45:21.211Z,99645.17
2023-05-15T04:47:49.339Z,99648.63
2023-05-15T04:50:16.858Z,99645.14
2023-05-15T04:52:46.040Z,99646.52
2023-05-15T04:55:13.462Z,99643.20
2023-05-15T04:57:41.568Z,99645.29
2023-05-15T05:00:12.675Z,99645.55
2023-05-15T05:02:40.517Z,99647.11
2023-05-15T05:05:08.773Z,99652.55
2023-05-15T05:07:36.228Z,99652.52
2023-05-15T05:10:04.594Z,99653.20
2023-05-15T05:12:31.897Z,99648.77
2023-05-15T05:14:59.615Z,99654.08
2023-05-15T05:17:27.213Z,99655.54
2023-05-15T05:19:54.852Z,99652.83
2023-05-15T05:22:22.490Z,99648.73
2023-05-15T05:24:49.916Z,99651.48
2023-05-15T05:27:17.513Z,99654.94
2023-05-15T05:29:45.163Z,99659.36
2023-05-15T05:32:12.832Z,99662.89
2023-05-15T05:34:40.153Z,99667.07
2023-05-15T05:37:07.680Z,99663.61
2023-05-15T05:39:35.430Z,99665.63
2023-05-15T05:42:03.167Z,99663.94
2023-05-15T05:44:30.931Z,99662.08
2023-05-15T05:46:58.313Z,99660.77
2023-05-15T05:49:25.948Z,99664.92
2023-05-15T05:51:53.401Z,99665.48
2023-05-15T05:54:20.856Z,99664.55
2023-05-15T05:56:48.425Z,99664.23
2023-05-15T05:59:16.074Z,99661.77
2023-05-15T06:01:43.750Z,99661.91
2023-05-15T06:04:11.754Z,99662.67
2023-05-15T06:06:39.582Z,99664.88
2023-05-15T06:09:07.144Z,99659.95
2023-05-15T06:11:34.621Z,99660.11
2023-05-15T06:14:02.387Z,99660.13
2023-05-15T06:16:30.238Z,99659.05
2023-05-15T06:18:58.029Z,99651.76
2023-05-15T06:21:25.544Z,99655.31
2023-05-15T06:23:53.095Z,99654.52
2023-05-15T06:26:22.501Z,99655.67
2023-05-15T06:28:50.069Z,99655.35
2023-05-15T06:31:17.857Z,99655.41
2023-05-15T06:33:45.284Z,99650.77
2023-05-15T06:36:12.804Z,99654.69
2023-05-15T06:38:40.512Z,99650.91
2023-05-15T06:41:08.271Z,99645.13
2023-05-15T06:43:36.483Z,99637.36
2023-05-15T06:46:05.357Z,99641.11
2023-05-15T06:48:32.817Z,99642.66
2023-05-15T06:51:00.557Z,99640.02
2023-05-15T06:53:30.089Z,99637.23
2023-05-15T06:55:57.419Z,99635.58
2023-05-15T06:58:25.394Z,99634.81
2023-05-15T07:00:54.242Z,99637.58
2023-05-15T07:03:23.778Z,99637.57
2023-05-15T07:05:52.680Z,99636.16
2023-05-15T07:08:20.092Z,99632.05
2023-05-15T07:10:48.912Z,99636.45
2023-05-15T07:13:21.093Z,99631.96
2023-05-15T07:15:49.253Z,99630.11
2023-05-15T07:18:16.573Z,99628.23
2023-05-15T07:20:44.059Z,99622.95
2023-05-15T07:23:11.317Z,99623.31
2023-05-15T07:25:38.985Z,99617.43
2023-05-15T07:28:07.151Z,99614.11
2023-05-15T07:30:34.202Z,99615.25
2023-05-15T07:33:01.501Z,99612.85
2023-05-15T07:35:28.695Z,99610.52
2023-05-15T07:37:56.384Z,99611.28
2023-05-15T07:40:23.736Z,99609.64
2023-05-15T07:42:51.370Z,99609.03
2023-05-15T07:45:19.076Z,99610.20
2023-05-15T07:47:47.670Z,99602.44
2023-05-15T07:50:15.186Z,99599.17
2023-05-15T07:52:43.460Z,99598.52
2023-05-15T07:55:11.051Z,99597.33
2023-05-15T07:57:40.041Z,99596.98
2023-05-15T08:00:13.498Z,99597.60
2023-05-15T08:02:41.834Z,99595.05
2023-05-15T08:05:10.657Z,99592.67
2023-05-15T08:07:37.726Z,99590.27
2023-05-15T08:10:06.532Z,99592.25
2023-05-15T08:12:33.970Z,99589.79
2023-05-15T08:15:01.519Z,99589.32
2023-05-15T08:17:29.012Z,99590.68
2023-05-15T08:19:56.348Z,99588.73
2023-05-15T08:22:23.890Z,99591.86
2023-05-15T08:24:51.250Z,99591.14
2023-05-15T08:27:18.466Z,99585.66
2023-05-15T08:29:46.278Z,99585.54
2023-05-15T08:32:14.025Z,99583.80
2023-05-15T08:34:41.067Z,99583.18
2023-05-15T08:37:08.525Z,99575.29
2023-05-15T08:39:35.792Z,99576.26
2023-05-15T08:42:22.387Z,99573.00
2023-05-15T08:44:50.549Z,99567.27
2023-05-15T08:47:19.574Z,99561.38
2023-05-15T08:50:05.345Z,99563.13
2023-05-15T08:52:33.410Z,99556.70
2023-05-15T08:55:01.497Z,99559.71
2023-05-15T08:57:29.367Z,99559.02
2023-05-15T08:59:57.012Z,99551.68
2023-05-15T09:02:25.728Z,99553.64
2023-05-15T09:04:53.150Z,99549.30
2023-05-15T09:07:20.840Z,99549.20
2023-05-15T09:09:48.493Z,99550.88
2023-05-15T09:12:16.337Z,99550.30
2023-05-15T09:14:44.312Z,99535.94
2023-05-15T09:17:12.424Z,99531.73
2023-05-15T09:19:43.323Z,99533.14
2023-05-15T09:22:26.853Z,99529.53
2023-05-15T09:24:55.544Z,99530.27
2023-05-15T09:27:23.095Z,99533.34
2023-05-15T09:29:54.558Z,99535.25
2023-05-15T09:32:22.432Z,99527.05
2023-05-15T09:34:50.188Z,99528.29
2023-05-15T09:37:30.171Z,99521.98
2023-05-15T09:40:09.277Z,99514.25
2023-05-15T09:42:37.229Z,99513.91
2023-05-15T09:45:06.220Z,99508.90
2023-05-15T09:47:34.258Z,99501.09
2023-05-15T09:50:02.474Z,99506.09
2023-05-15T09:52:30.541Z,99503.21
2023-05-15T09:54:58.231Z,99503.01
2023-05-15T09:57:25.961Z,99502.61
2023-05-15T09:59:53.488Z,99500.16
2023-05-15T10:02:24.997Z,99500.73
2023-05-15T10:04:57.235Z,99499.21
2023-05-15T10:07:32.170Z,99492.20
2023-05-15T10:10:00.448Z,99500.63
2023-05-15T10:12:29.033Z,99495.12
2023-05-15T10:14:57.101Z,99495.40
2023-05-15T10:17:24.789Z,99490.73
2023-05-15T10:19:58.532Z,99491.46
2023-05-15T10:22:29.719Z,99492.04
2023-05-15T10:25:03.262Z,99487.88
2023-05-15T10:27:30.813Z,99479.34
2023-05-15T10:29:58.839Z,99478.33
2023-05-15T10:32:26.353Z,99480.03
2023-05-15T10:34:54.577Z,99480.88
2023-05-15T10:37:22.200Z,99480.99
2023-05-15T10:39:50.078Z,99476.77
2023-05-15T10:42:17.767Z,99481.34
2023-05-15T10:44:45.222Z,99482.60
2023-05-15T10:47:12.950Z,99481.84
2023-05-15T10:49:40.768Z,99482.34
2023-05-15T10:52:09.332Z,99471.20
2023-05-15T10:54:36.987Z,99474.00
2023-05-15T10:57:04.756Z,99469.08
2023-05-15T10:59:32.951Z,99463.86
2023-05-15T11:02:19.811Z,99465.73
2023-05-15T11:04:47.911Z,99462.71
2023-05-15T11:07:16.898Z,99456.13
2023-05-15T11:09:44.540Z,99462.55
2023-05-15T11:12:12.427Z,99466.64
2023-05-15T11:14:42.139Z,99465.88
2023-05-15T11:17:12.897Z,99467.65
2023-05-15T11:19:49.357Z,99478.54
2023-05-15T11:22:19.476Z,99484.13
2023-05-15T11:24:52.862Z,99484.11
2023-05-15T11:27:31.572Z,99486.64
2023-05-15T11:30:18.621Z,99478.95
2023-05-15T11:32:52.090Z,99473.08
2023-05-15T11:35:46.166Z,99474.37
2023-05-15T11:38:17.920Z,99467.44
2023-05-15T11:40:56.235Z,99455.20
2023-05-15T11:43:31.272Z,99455.84
2023-05-15T11:46:09.686Z,99446.73
2023-05-15T11:48:42.371Z,99450.25
2023-05-15T11:51:26.645Z,99446.17
2023-05-15T11:53:55.630Z,99434.53
2023-05-15T11:56:24.856Z,99429.91
2023-05-15T11:58:55.804Z,99431.21
2023-05-15T12:01:23.302Z,99428.94
2023-05-15T12:03:53.544Z,99431.16
2023-05-15T12:06:20.869Z,99422.77
2023-05-15T12:08:56.465Z,99413.76
2023-05-15T12:11:24.611Z,99411.59
2023-05-15T12:13:54.511Z,99406.87
2023-05-15T12:16:26.579Z,99407.77
2023-05-15T12:18:54.496Z,99415.56
2023-05-15T12:21:22.344Z,99413.60
2023-05-15T12:24:06.540Z,99410.83
2023-05-15T12:26:35.047Z,99410.76
2023-05-15T12:29:02.712Z,99416.02
2023-05-15T12:31:30.584Z,99420.03
2023-05-15T12:33:58.105Z,99429.20
2023-05-15T12:36:29.987Z,99432.15
2023-05-15T12:38:58.570Z,99435.47
2023-05-15T12:41:29.626Z,99441.04
2023-05-15T12:43:57.217Z,99443.27
2023-05-15T12:46:32.067Z,99445.31
2023-05-15T12:49:00.111Z,99440.77
2023-05-15T12:51:27.734Z,99442.73
2023-05-15T12:53:57.854Z,99437.74
2023-05-15T12:56:26.659Z,99436.14
2023-05-15T12:58:55.019Z,99435.25
2023-05-15T13:01:23.239Z,99433.56
2023-05-15T13:03:51.577Z,99431.23
2023-05-15T13:06:19.222Z,99422.88
2023-05-15T13:08:47.946Z,99428.06
2023-05-15T13:11:16.801Z,99429.59
2023-05-15T13:13:49.429Z,99427.78
2023-05-15T13:16:22.133Z,99430.17
2023-05-15T13:18:49.816Z,99430.94
2023-05-15T13:21:18.197Z,99430.09
2023-05-15T13:23:46.168Z,99426.88
2023-05-15T13:26:13.942Z,99421.36
2023-05-15T13:28:42.323Z,99422.52
2023-05-15T13:31:10.203Z,99425.40
2023-05-15T13:33:37.836Z,99425.29
2023-05-15T13:36:06.149Z,99421.19
2023-05-15T13:38:33.654Z,99420.23
2023-05-15T13:41:01.132Z,99427.48
2023-05-15T13:43:28.482Z,99430.79
2023-05-15T13:45:56.257Z,99432.61
2023-05-15T13:48:23.604Z,99427.59
2023-05-15T13:50:51.472Z,99425.05
2023-05-15T13:53:19.235Z,99427.70
2023-05-15T13:55:47.075Z,99428.38
2023-05-15T13:58:14.864Z,99424.88
2023-05-15T14:00:43.186Z,99422.81
2023-05-15T14:03:14.118Z,99425.98
2023-05-15T14:05:43.002Z,99417.50
2023-05-15T14:08:11.352Z,99412.66
2023-05-15T14:10:38.705Z,99410.40
2023-05-15T14:13:06.378Z,99415.95
2023-05-15T14:15:34.336Z,99425.41
2023-05-15T14:18:02.146Z,99428.21
2023-05-15T14:20:29.961Z,99423.02
2023-05-15T14:22:57.553Z,99428.03
2023-05-15T14:25:25.388Z,99428.95
2023-05-15T14:27:53.049Z,99428.66
2023-05-15T14:30:21.879Z,99431.92
2023-05-15T14:32:49.643Z,99433.75
2023-05-15T14:35:17.177Z,99436.40
2023-05-15T14:37:45.316Z,99432.77
2023-05-15T14:40:13.461Z,99430.90
2023-05-15T14:42:41.015Z,99429.65
2023-05-15T14:45:09.443Z,99437.10
2023-05-15T14:47:37.039Z,99439.17
2023-05-15T14:50:05.432Z,99435.05
2023-05-15T14:52:32.731Z,99433.73
2023-05-15T14:55:08.396Z,99433.86
2023-05-15T14:57:38.183Z,99437.58
2023-05-15T15:00:07.318Z,99446.83
2023-05-15T15:02:34.931Z,99442.28
2023-05-15T15:05:02.614Z,99444.61
2023-05-15T15:07:33.036Z,99443.56
2023-05-15T15:10:00.799Z,99451.16
2023-05-15T15:12:28.938Z,99448.39
2023-05-15T15:14:56.180Z,99450.15
2023-05-15T15:17:24.187Z,99443.50
2023-05-15T15:19:52.373Z,99443.30
2023-05-15T15:22:19.926Z,99446.56
2023-05-15T15:24:47.280Z,99448.09
2023-05-15T15:27:14.633Z,99451.91
2023-05-15T15:29:45.274Z,99465.56
2023-05-15T15:32:13.116Z,99467.02
2023-05-15T15:34:41.520Z,99463.65
2023-05-15T15:37:08.908Z,99462.95
2023-05-15T15:39:36.278Z,99459.17
2023-05-15T15:42:05.692Z,99456.65
2023-05-15T15:44:34.616Z,99456.48
2023-05-15T15:47:02.690Z,99450.78
2023-05-15T15:49:31.075Z,99446.20
2023-05-15T15:51:58.413Z,99445.05
2023-05-15T15:54:25.875Z,99453.55
2023-05-15T15:56:53.547Z,99458.61
2023-05-15T15:59:22.638Z,99461.61
2023-05-15T16:01:50.118Z,99461.55
2023-05-15T16:04:17.883Z,99463.82
2023-05-15T16:06:46.029Z,99462.70
2023-05-15T16:09:13.589Z,99463.08
2023-05-15T16:11:41.044Z,99461.95
2023-05-15T16:14:08.606Z,99464.54
2023-05-15T16:16:36.170Z,99462.23
2023-05-15T16:19:04.961Z,99455.42
2023-05-15T16:21:32.610Z,99455.55
2023-05-15T16:24:00.682Z,99456.30
2023-05-15T16:26:28.345Z,99460.91
2023-05-15T16:28:57.253Z,99462.55
2023-05-15T16:31:25.006Z,99461.39
2023-05-15T16:33:53.186Z,99468.58
2023-05-15T16:36:20.628Z,99473.02
2023-05-15T16:38:48.804Z,99477.55
2023-05-15T16:41:16.580Z,99477.13
2023-05-15T16:43:44.805Z,99477.61
2023-05-15T16:46:12.224Z,99477.31
2023-05-15T16:48:40.985Z,99478.23
2023-05-15T16:51:09.503Z,99474.84
2023-05-15T16:53:37.227Z,99476.73
2023-05-15T16:56:05.093Z,99479.43
2023-05-15T16:58:32.863Z,99477.83
2023-05-15T17:01:00.416Z,99479.81
2023-05-15T17:03:27.973Z,99487.47
2023-05-15T17:05:55.637Z,99485.30
2023-05-15T17:08:23.298Z,99485.31
2023-05-15T17:10:51.307Z,99483.86
2023-05-15T17:13:19.038Z,99484.27
2023-05-15T17:15:47.581Z,99482.27
2023-05-15T17:18:15.261Z,99482.83
2023-05-15T17:20:42.934Z,99486.65
2023-05-15T17:23:10.699Z,99487.05
2023-05-15T17:25:37.955Z,99489.63
2023-05-15T17:28:05.616Z,99492.55
2023-05-15T17:30:33.306Z,99498.30
2023-05-15T17:33:01.201Z,99499.69
2023-05-15T17:35:30.747Z,99501.58
2023-05-15T17:38:00.260Z,99502.73
2023-05-15T17:40:30.465Z,99503.89
2023-05-15T17:42:58.069Z,99504.41
2023-05-15T17:45:27.372Z,99509.70
2023-05-15T17:48:02.621Z,99512.15
2023-05-15T17:50:30.451Z,99514.89
2023-05-15T17:52:57.986Z,99514.45
2023-05-15T17:55:25.595Z,99510.27
2023-05-15T17:57:53.535Z,99519.36
2023-05-15T18:00:21.611Z,99525.58
2023-05-15T18:02:49.393Z,99520.55
2023-05-15T18:05:17.640Z,99523.70
2023-05-15T18:07:48.295Z,99527.31
2023-05-15T18:10:16.028Z,99527.91
2023-05-15T18:12:43.483Z,99534.22
2023-05-15T18:15:11.353Z,99533.27
2023-05-15T18:17:38.802Z,99532.80
2023-05-15T18:20:07.518Z,99534.25
2023-05-15T18:22:36.696Z,99534.05
2023-05-15T18:25:04.993Z,99533.25
2023-05-15T18:27:32.428Z,99531.11
2023-05-15T18:30:00.193Z,99530.73
2023-05-15T18:32:30.126Z,99536.27
2023-05-15T18:34:59.210Z,99533.59
2023-05-15T18:37:26.860Z,99537.41
2023-05-15T18:39:57.390Z,99539.20
2023-05-15T18:42:25.979Z,99538.08
2023-05-15T18:44:55.078Z,99540.59
2023-05-15T18:47:22.476Z,99542.55
2023-05-15T18:49:49.981Z,99540.28
2023-05-15T18:52:19.126Z,99539.16
2023-05-15T18:54:46.849Z,99540.07
2023-05-15T18:57:17.484Z,99541.91
2023-05-15T18:59:45.443Z,99543.19
2023-05-15T19:02:13.439Z,99545.70
2023-05-15T19:04:41.275Z,99546.20
2023-05-15T19:07:08.729Z,99548.94
2023-05-15T19:09:36.616Z,99549.64
2023-05-15T19:12:04.092Z,99551.36
2023-05-15T19:14:32.536Z,99550.45
2023-05-15T19:17:00.285Z,99552.82
2023-05-15T19:19:27.963Z,99551.00
2023-05-15T19:21:55.630Z,99553.85
2023-05-15T19:24:23.282Z,99554.01
2023-05-15T19:26:50.846Z,99554.06
2023-05-15T19:29:18.093Z,99554.00
2023-05-15T19:31:46.091Z,99553.14
2023-05-15T19:34:14.140Z,99549.81
2023-05-15T19:36:41.793Z,99550.34
2023-05-15T19:39:09.457Z,99550.98
2023-05-15T19:41:36.911Z,99547.77
2023-05-15T19:44:04.876Z,99548.13
2023-05-15T19:46:32.386Z,99542.15
2023-05-15T19:48:59.905Z,99544.67
2023-05-15T19:51:27.554Z,99542.67
2023-05-15T19:53:56.059Z,99544.95
2023-05-15T19:56:24.623Z,99540.36
2023-05-15T19:58:52.894Z,99543.95
2023-05-15T20:01:20.610Z,99545.98
2023-05-15T20:03:48.397Z,99546.94
2023-05-15T20:06:16.292Z,99551.53
2023-05-15T20:08:43.847Z,99555.87
2023-05-15T20:11:11.610Z,99557.41
2023-05-15T20:13:39.579Z,99558.09
2023-05-15T20:16:13.059Z,99563.91
2023-05-15T20:18:41.640Z,99561.27
2023-05-15T20:21:09.437Z,99564.54
2023-05-15T20:23:36.894Z,99566.09
2023-05-15T20:26:04.142Z,99562.62
2023-05-15T20:28:31.723Z,99562.33
2023-05-15T20:31:00.105Z,99562.70
2023-05-15T20:33:27.702Z,99563.23
2023-05-15T20:35:55.404Z,99562.69
2023-05-15T20:38:25.625Z,99567.80
2023-05-15T20:40:53.285Z,99567.67
2023-05-15T20:43:20.611Z,99568.27
2023-05-15T20:45:48.212Z,99567.80
2023-05-15T20:48:15.871Z,99565.14
2023-05-15T20:50:43.314Z,99567.46
2023-05-15T20:53:10.766Z,99562.89
2023-05-15T20:55:38.223Z,99559.98
2023-05-15T20:58:05.892Z,99560.89
2023-05-15T21:00:33.446Z,99565.69
2023-05-15T21:03:01.217Z,99565.59
2023-05-15T21:05:30.100Z,99571.95
2023-05-15T21:07:57.865Z,99571.98
2023-05-15T21:10:26.025Z,99573.23
2023-05-15T21:12:53.922Z,99574.69
2023-05-15T21:15:21.667Z,99576.03
2023-05-15T21:17:48.906Z,99575.73
2023-05-15T21:20:16.896Z,99576.80
2023-05-15T21:22:44.866Z,99576.52
2023-05-15T21:25:12.770Z,99578.20
2023-05-15T21:27:40.798Z,99577.63
2023-05-15T21:30:09.061Z,99577.77
2023-05-15T21:32:36.706Z,99582.53
2023-05-15T21:35:04.773Z,99580.26
2023-05-15T21:37:32.259Z,99583.20
2023-05-15T21:39:59.822Z,99585.91
2023-05-15T21:42:27.278Z,99581.59
2023-05-15T21:44:54.732Z,99582.61
2023-05-15T21:47:22.373Z,99585.98
2023-05-15T21:49:50.179Z,99594.77
2023-05-15T21:52:17.718Z,99591.30
2023-05-15T21:54:45.690Z,99592.67
2023-05-15T21:57:13.228Z,99596.59
2023-05-15T21:59:40.777Z,99597.10
2023-05-15T22:02:08.420Z,99598.70
2023-05-15T22:04:36.132Z,99600.18
2023-05-15T22:07:03.573Z,99601.55
2023-05-15T22:09:31.162Z,99607.48
2023-05-15T22:11:58.901Z,99605.36
2023-05-15T22:14:26.574Z,99608.10
2023-05-15T22:16:54.263Z,99608.87
2023-05-15T22:21:56.408Z,99608.52
2023-05-15T22:24:23.972Z,99605.17
2023-05-15T22:26:51.425Z,99606.56
2023-05-15T22:29:18.692Z,99603.38
2023-05-15T22:31:46.621Z,99600.85
2023-05-15T22:34:14.049Z,99596.81
2023-05-15T22:36:41.661Z,99593.52
2023-05-15T22:39:09.324Z,99591.40
2023-05-15T22:41:36.985Z,99588.86
2023-05-15T22:44:05.369Z,99587.10
2023-05-15T22:46:33.104Z,99591.21
2023-05-15T22:49:01.957Z,99587.76
2023-05-15T22:51:29.886Z,99588.97
2023-05-15T22:53:57.445Z,99591.63
2023-05-15T22:56:24.800Z,99588.65
2023-05-15T22:58:53.792Z,99588.42
2023-05-15T23:01:21.597Z,99583.30
2023-05-15T23:03:49.287Z,99582.15
2023-05-15T23:06:18.004Z,99576.87
2023-05-15T23:08:45.562Z,99578.45
2023-05-15T23:11:13.220Z,99575.47
2023-05-15T23:13:40.769Z,99571.30
2023-05-15T23:16:08.266Z,99569.77
2023-05-15T23:18:36.978Z,99567.15
2023-05-15T23:21:05.127Z,99569.61
2023-05-15T23:23:32.902Z,99572.58
2023-05-15T23:26:00.216Z,99571.48
2023-05-15T23:28:27.724Z,99568.52
2023-05-15T23:30:55.795Z,99567.40
2023-05-15T23:33:23.841Z,99565.91
2023-05-15T23:35:52.507Z,99562.66
2023-05-15T23:38:22.542Z,99564.36
2023-05-15T23:40:50.488Z,99566.11
2023-05-15T23:43:17.945Z,99569.19
2023-05-15T23:45:45.576Z,99565.98
2023-05-15T23:48:13.104Z,99564.86
2023-05-15T23:50:40.840Z,99565.17
2023-05-15T23:53:08.793Z,99564.96
2023-05-15T23:55:36.253Z,99564.42
2023-05-15T23:58:03.660Z,99562.95
